Time;durP1;ratioP1;P1;durP2;ratioP2;P2;SDS_P1;SDS_P2;PMS_P1;PMS_P2;Temp;Humidity;BMP_temperature;BMP_pressure;BME280_temperature;BME280_humidity;BME280_pressure;Samples;Min_cycle;Max_cycle;Signal;HPM_P1;HPM_P2
2023/08/14 00:01:23;;;;;;;4.70;2.30;;;16.70;81.40;;;;;;4952730;28;20057;-79
2023/08/14 00:03:50;;;;;;;5.80;2.65;;;16.80;81.20;;;;;;4947095;28;20035;-84
2023/08/14 00:06:15;;;;;;;6.80;2.53;;;16.70;81.30;;;;;;4941471;28;20500;-83
2023/08/14 00:08:41;;;;;;;5.80;2.38;;;16.70;81.20;;;;;;4941099;28;20026;-85
2023/08/14 00:11:07;;;;;;;5.93;2.80;;;16.60;81.30;;;;;;4941016;28;20174;-83
2023/08/14 00:13:49;;;;;;;5.38;2.33;;;16.60;81.40;;;;;;4940012;28;20070;-79
2023/08/14 00:16:14;;;;;;;6.63;2.75;;;16.60;81.50;;;;;;4958257;28;20055;-84
2023/08/14 00:18:40;;;;;;;5.47;2.53;;;16.60;81.50;;;;;;4945282;28;20027;-84
2023/08/14 00:21:06;;;;;;;5.07;2.47;;;16.60;81.70;;;;;;4951308;28;20133;-84
2023/08/14 00:23:31;;;;;;;5.30;2.50;;;16.60;81.70;;;;;;4974092;28;20113;-80
2023/08/14 00:25:57;;;;;;;5.13;2.67;;;16.60;81.60;;;;;;4975579;28;20256;-83
2023/08/14 00:28:23;;;;;;;4.53;2.75;;;16.50;81.70;;;;;;4960336;28;20054;-76
2023/08/14 00:30:48;;;;;;;4.55;2.20;;;16.50;81.80;;;;;;4962461;28;20550;-81
2023/08/14 00:33:14;;;;;;;4.82;2.53;;;16.50;81.70;;;;;;4946819;28;20042;-80
2023/08/14 00:35:40;;;;;;;4.57;2.35;;;16.50;81.80;;;;;;4950677;28;20522;-86
2023/08/14 00:38:05;;;;;;;7.30;2.55;;;16.50;81.70;;;;;;4960212;28;20109;-82
2023/08/14 00:40:31;;;;;;;5.20;2.50;;;16.50;81.80;;;;;;4961071;28;21700;-83
2023/08/14 00:42:57;;;;;;;6.13;2.50;;;16.50;81.80;;;;;;4950048;28;20047;-82
2023/08/14 00:45:22;;;;;;;4.80;2.55;;;16.40;81.60;;;;;;4947718;28;20039;-82
2023/08/14 00:47:48;;;;;;;6.63;2.60;;;16.30;81.70;;;;;;4948110;28;20171;-75
2023/08/14 00:50:15;;;;;;;6.30;2.50;;;16.20;81.90;;;;;;4947969;28;20524;-84
2023/08/14 00:52:43;;;;;;;4.45;2.13;;;16.20;82.10;;;;;;4958165;28;20030;-84
2023/08/14 00:55:13;;;;;;;8.10;2.55;;;16.10;82.30;;;;;;4960899;28;20062;-84
2023/08/14 00:57:39;;;;;;;8.55;2.67;;;16.20;82.20;;;;;;4964238;28;20219;-83
2023/08/14 01:00:06;;;;;;;6.93;2.83;;;16.10;82.30;;;;;;4965507;28;20495;-80
2023/08/14 01:02:33;;;;;;;6.25;2.70;;;16.10;82.40;;;;;;4966091;28;20427;-83
2023/08/14 01:04:59;;;;;;;7.35;3.33;;;16.10;82.50;;;;;;4971723;28;20042;-83
2023/08/14 01:07:25;;;;;;;6.38;2.78;;;16.10;82.50;;;;;;4971203;28;20042;-84
2023/08/14 01:09:51;;;;;;;6.65;3.17;;;16.00;82.60;;;;;;4972829;28;20054;-85
2023/08/14 01:12:42;;;;;;;5.95;2.90;;;15.90;82.70;;;;;;4968157;28;20035;-84
2023/08/14 01:15:11;;;;;;;5.93;3.20;;;15.90;82.80;;;;;;4976489;28;20085;-76
2023/08/14 01:17:39;;;;;;;6.00;3.10;;;15.80;82.80;;;;;;4991645;28;20601;-81
2023/08/14 01:20:06;;;;;;;5.30;3.00;;;15.70;83.10;;;;;;4972293;28;20037;-85
2023/08/14 01:23:09;;;;;;;5.90;3.10;;;15.70;83.30;;;;;;4969278;28;20325;-86
2023/08/14 01:25:37;;;;;;;7.05;3.22;;;15.70;83.30;;;;;;4968334;28;20436;-83
2023/08/14 01:28:04;;;;;;;8.02;3.13;;;15.70;83.30;;;;;;4973952;28;20054;-85
2023/08/14 01:30:29;;;;;;;7.07;2.90;;;15.80;83.30;;;;;;4969221;28;20546;-82
2023/08/14 01:32:55;;;;;;;5.22;2.40;;;15.70;83.40;;;;;;4944215;28;20035;-83
2023/08/14 01:35:24;;;;;;;8.80;3.38;;;15.70;83.40;;;;;;4946335;28;20404;-84
2023/08/14 01:38:05;;;;;;;6.28;3.05;;;15.70;83.40;;;;;;4945460;28;20340;-83
2023/08/14 01:40:43;;;;;;;4.90;2.97;;;15.70;83.40;;;;;;4952626;28;20365;-81
2023/08/14 01:43:14;;;;;;;8.63;3.08;;;15.70;83.40;;;;;;4947550;28;20055;-78
2023/08/14 01:45:41;;;;;;;8.40;3.50;;;15.70;83.50;;;;;;4954709;28;20035;-84
2023/08/14 01:48:09;;;;;;;5.63;2.92;;;15.60;83.50;;;;;;4965774;28;20023;-84
2023/08/14 01:50:38;;;;;;;7.38;2.97;;;15.60;83.60;;;;;;4961070;28;20600;-85
2023/08/14 01:53:03;;;;;;;5.75;3.17;;;15.50;83.70;;;;;;4960138;28;20114;-82
2023/08/14 01:55:29;;;;;;;7.10;3.55;;;15.50;83.70;;;;;;4957956;28;20130;-83
2023/08/14 01:57:55;;;;;;;5.45;2.92;;;15.40;83.70;;;;;;4954006;28;20453;-86
2023/08/14 02:00:21;;;;;;;7.03;3.58;;;15.40;83.80;;;;;;4957989;28;20026;-79
2023/08/14 02:02:47;;;;;;;6.07;3.28;;;15.40;83.90;;;;;;4988314;28;20023;-76
2023/08/14 02:05:13;;;;;;;7.55;3.40;;;15.40;83.90;;;;;;4962699;28;20026;-82
2023/08/14 02:07:39;;;;;;;8.20;3.38;;;15.30;83.80;;;;;;4961566;28;20041;-79
2023/08/14 02:10:05;;;;;;;7.90;3.40;;;15.30;83.80;;;;;;4966332;28;20070;-84
2023/08/14 02:12:31;;;;;;;7.18;3.38;;;15.20;84.00;;;;;;4965557;28;20035;-83
2023/08/14 02:14:57;;;;;;;8.05;3.42;;;15.30;84.00;;;;;;4962832;28;20105;-86
2023/08/14 02:17:23;;;;;;;5.18;2.78;;;15.30;84.00;;;;;;4965172;28;20122;-86
2023/08/14 02:19:48;;;;;;;6.03;3.55;;;15.20;84.00;;;;;;4964081;28;20023;-77
2023/08/14 02:22:14;;;;;;;7.72;3.25;;;15.30;83.90;;;;;;4956617;28;20036;-82
2023/08/14 02:24:40;;;;;;;9.45;3.22;;;15.30;83.90;;;;;;4954487;28;20050;-84
2023/08/14 02:27:05;;;;;;;7.43;3.33;;;15.30;84.00;;;;;;4960420;28;20074;-82
2023/08/14 02:29:31;;;;;;;6.07;3.10;;;15.30;84.00;;;;;;4951987;28;20794;-83
2023/08/14 02:31:57;;;;;;;7.85;3.80;;;15.20;84.00;;;;;;4968475;28;20097;-87
2023/08/14 02:34:45;;;;;;;6.55;3.20;;;15.20;84.10;;;;;;4968300;28;20089;-80
2023/08/14 02:37:11;;;;;;;6.10;3.20;;;15.30;84.20;;;;;;4964377;28;20046;-82
2023/08/14 02:39:37;;;;;;;5.78;2.80;;;15.20;84.10;;;;;;4965415;28;20019;-79
2023/08/14 02:42:03;;;;;;;5.93;3.13;;;15.20;84.20;;;;;;4959741;28;20482;-85
2023/08/14 02:44:29;;;;;;;7.38;3.28;;;15.20;84.30;;;;;;4961634;28;20066;-86
2023/08/14 02:46:56;;;;;;;6.65;3.40;;;15.20;84.20;;;;;;4972542;28;20031;-80
2023/08/14 02:49:22;;;;;;;6.35;3.28;;;15.20;84.20;;;;;;4989536;28;20118;-77
2023/08/14 02:51:47;;;;;;;7.22;3.15;;;15.20;84.30;;;;;;4988847;28;20042;-80
2023/08/14 02:54:13;;;;;;;6.32;2.95;;;15.10;84.20;;;;;;4985610;28;20025;-78
2023/08/14 02:56:39;;;;;;;6.82;3.20;;;15.10;84.20;;;;;;4967744;28;20129;-82
2023/08/14 02:59:04;;;;;;;5.03;2.75;;;15.20;84.40;;;;;;4968879;28;20482;-78
2023/08/14 03:01:30;;;;;;;7.10;2.95;;;15.10;84.30;;;;;;4955739;28;20386;-83
2023/08/14 03:03:56;;;;;;;6.13;3.15;;;15.20;84.30;;;;;;4953284;28;20066;-85
2023/08/14 03:06:21;;;;;;;7.10;3.28;;;15.20;84.20;;;;;;4955008;28;20372;-83
2023/08/14 03:08:49;;;;;;;8.38;3.25;;;15.20;84.20;;;;;;4955706;28;20027;-87
2023/08/14 03:11:14;;;;;;;6.82;3.83;;;15.20;84.20;;;;;;4948192;28;20404;-82
2023/08/14 03:13:40;;;;;;;6.90;3.28;;;15.20;84.10;;;;;;4958644;28;20101;-81
2023/08/14 03:16:06;;;;;;;7.15;3.33;;;15.20;84.10;;;;;;4977399;28;20093;-87
2023/08/14 03:18:32;;;;;;;6.10;3.20;;;15.30;84.10;;;;;;4956710;28;20501;-84
2023/08/14 03:20:57;;;;;;;6.88;3.50;;;15.20;84.10;;;;;;4976686;28;20042;-75
2023/08/14 03:23:23;;;;;;;7.65;3.35;;;15.20;84.10;;;;;;4972864;28;20028;-83
2023/08/14 03:25:49;;;;;;;6.75;3.15;;;15.20;84.10;;;;;;4964956;28;20121;-80
2023/08/14 03:28:14;;;;;;;8.15;3.75;;;15.30;84.00;;;;;;4965145;28;20443;-87
2023/08/14 03:30:42;;;;;;;10.85;3.45;;;15.20;84.10;;;;;;4960096;28;20031;-83
2023/08/14 03:33:08;;;;;;;6.88;3.45;;;15.20;84.00;;;;;;4955867;28;20030;-81
2023/08/14 03:35:33;;;;;;;9.27;3.70;;;15.20;84.00;;;;;;4955061;28;20035;-86
2023/08/14 03:37:59;;;;;;;9.70;4.10;;;15.20;84.00;;;;;;4965503;28;20082;-81
2023/08/14 03:40:25;;;;;;;9.15;3.83;;;15.20;84.00;;;;;;4967155;28;20018;-85
2023/08/14 03:42:51;;;;;;;11.68;4.50;;;15.30;83.80;;;;;;4955102;28;20411;-85
2023/08/14 03:45:16;;;;;;;9.27;3.97;;;15.20;83.70;;;;;;4949155;28;20404;-86
2023/08/14 03:47:42;;;;;;;8.73;4.43;;;15.30;83.70;;;;;;4973200;28;20384;-81
2023/08/14 03:50:08;;;;;;;10.13;4.20;;;15.30;83.70;;;;;;4971278;28;20027;-86
2023/08/14 03:52:34;;;;;;;9.35;4.88;;;15.30;83.80;;;;;;4967340;28;20173;-78
2023/08/14 03:54:59;;;;;;;10.82;5.15;;;15.20;83.80;;;;;;4969863;28;20550;-87
2023/08/14 03:57:25;;;;;;;10.07;4.70;;;15.30;83.90;;;;;;4968403;28;20088;-81
2023/08/14 03:59:51;;;;;;;10.27;4.53;;;15.30;83.90;;;;;;4969382;28;20030;-85
2023/08/14 04:02:16;;;;;;;9.05;4.38;;;15.30;83.80;;;;;;4953118;28;20027;-86
2023/08/14 04:04:42;;;;;;;8.93;4.50;;;15.30;83.70;;;;;;4957572;28;20033;-80
2023/08/14 04:07:08;;;;;;;10.65;4.38;;;15.30;83.60;;;;;;4952593;28;20047;-84
2023/08/14 04:09:33;;;;;;;9.75;4.50;;;15.30;83.60;;;;;;4947951;28;20050;-82
2023/08/14 04:12:01;;;;;;;8.98;4.18;;;15.30;83.50;;;;;;4959906;28;20407;-84
2023/08/14 04:14:27;;;;;;;11.73;4.70;;;15.30;83.50;;;;;;4958649;28;20031;-79
2023/08/14 04:16:54;;;;;;;10.50;4.75;;;15.30;83.50;;;;;;4969312;28;20039;-78
2023/08/14 04:19:20;;;;;;;10.13;4.80;;;15.20;83.60;;;;;;4968170;28;20161;-85
2023/08/14 04:21:46;;;;;;;9.32;4.72;;;15.20;83.70;;;;;;4962203;28;20483;-84
2023/08/14 04:24:12;;;;;;;11.77;4.65;;;15.20;83.60;;;;;;4970488;28;20026;-77
2023/08/14 04:26:38;;;;;;;8.43;4.63;;;15.20;83.50;;;;;;4957191;28;20035;-84
2023/08/14 04:29:06;;;;;;;8.60;4.32;;;15.10;83.40;;;;;;4972310;28;20062;-84
2023/08/14 04:31:33;;;;;;;14.00;5.28;;;15.10;83.40;;;;;;4958938;28;20098;-82
2023/08/14 04:33:59;;;;;;;9.63;4.63;;;15.10;83.60;;;;;;4951590;28;20042;-85
2023/08/14 04:36:25;;;;;;;9.10;4.82;;;15.00;83.80;;;;;;4949336;28;20031;-82
2023/08/14 04:38:51;;;;;;;10.15;4.43;;;15.00;83.90;;;;;;4949504;28;20018;-81
2023/08/14 04:41:16;;;;;;;11.13;4.70;;;15.00;83.90;;;;;;4965844;28;20046;-80
2023/08/14 04:43:42;;;;;;;11.07;4.78;;;15.00;83.90;;;;;;4975800;28;20043;-81
2023/08/14 04:46:13;;;;;;;8.43;4.57;;;15.10;83.90;;;;;;4967569;28;20039;-77
2023/08/14 04:48:39;;;;;;;10.05;4.40;;;15.10;83.90;;;;;;4971956;28;20023;-84
2023/08/14 04:51:06;;;;;;;9.13;4.47;;;15.10;84.00;;;;;;4966543;28;20049;-83
2023/08/14 04:53:31;;;;;;;12.55;5.38;;;15.10;84.10;;;;;;4972629;28;20407;-82
2023/08/14 04:55:57;;;;;;;10.95;5.43;;;15.10;84.10;;;;;;4967088;28;20034;-85
2023/08/14 04:58:23;;;;;;;11.60;5.85;;;15.20;84.10;;;;;;4972642;28;20033;-86
2023/08/14 05:00:48;;;;;;;12.35;5.53;;;15.20;84.00;;;;;;4966318;28;20031;-86
2023/08/14 05:03:14;;;;;;;11.52;5.10;;;15.30;83.90;;;;;;4956945;28;20400;-83
2023/08/14 05:05:40;;;;;;;10.45;5.05;;;15.30;83.90;;;;;;4947542;28;20034;-84
2023/08/14 05:08:05;;;;;;;12.38;5.47;;;15.40;83.80;;;;;;4952184;28;20431;-83
2023/08/14 05:10:32;;;;;;;10.27;5.43;;;15.50;83.80;;;;;;4954998;28;20912;-83
2023/08/14 05:12:58;;;;;;;10.98;5.97;;;15.40;83.90;;;;;;4948887;28;20065;-83
2023/08/14 05:15:24;;;;;;;10.65;5.18;;;15.50;83.80;;;;;;4947709;28;20059;-85
2023/08/14 05:17:49;;;;;;;11.27;5.55;;;15.50;83.80;;;;;;4958440;28;20460;-82
2023/08/14 05:20:16;;;;;;;11.57;6.05;;;15.60;83.60;;;;;;4953550;28;20083;-77
2023/08/14 05:22:43;;;;;;;11.80;5.90;;;15.60;83.40;;;;;;4960570;28;20090;-81
2023/08/14 05:25:10;;;;;;;10.35;5.50;;;15.60;83.40;;;;;;4954534;28;20041;-81
2023/08/14 05:27:38;;;;;;;10.45;6.03;;;15.60;83.50;;;;;;4961306;28;20588;-83
2023/08/14 05:30:05;;;;;;;11.05;5.63;;;15.70;83.50;;;;;;4952412;28;20463;-86
2023/08/14 05:32:31;;;;;;;10.25;5.85;;;15.70;83.50;;;;;;4947296;28;20118;-82
2023/08/14 05:34:57;;;;;;;9.82;5.13;;;15.80;83.60;;;;;;4954600;28;20110;-83
2023/08/14 05:37:22;;;;;;;12.45;6.10;;;15.90;83.60;;;;;;4956107;28;20669;-85
2023/08/14 05:39:48;;;;;;;10.77;5.93;;;16.00;83.50;;;;;;4946987;28;20704;-87
2023/08/14 05:42:15;;;;;;;11.88;5.05;;;16.10;83.40;;;;;;4955798;28;20050;-86
2023/08/14 05:44:41;;;;;;;9.27;4.90;;;16.20;83.40;;;;;;4960153;28;20113;-84
2023/08/14 05:47:06;;;;;;;8.95;5.10;;;16.40;83.20;;;;;;4950752;28;20107;-81
2023/08/14 05:49:32;;;;;;;11.65;4.97;;;16.60;83.00;;;;;;4955520;28;20130;-84
2023/08/14 05:51:58;;;;;;;7.80;4.07;;;16.70;82.80;;;;;;4959285;28;20644;-84
2023/08/14 05:54:23;;;;;;;10.40;4.68;;;16.80;82.50;;;;;;4958941;28;20101;-85
2023/08/14 05:56:50;;;;;;;10.95;3.95;;;16.90;82.10;;;;;;4953974;28;20034;-80
2023/08/14 05:59:16;;;;;;;9.02;4.20;;;17.00;82.20;;;;;;4981479;28;20023;-74
2023/08/14 06:01:42;;;;;;;11.02;5.13;;;17.00;81.90;;;;;;5004190;28;20034;-85
2023/08/14 06:04:07;;;;;;;9.10;4.80;;;17.00;81.80;;;;;;4966868;28;20039;-83
2023/08/14 06:06:33;;;;;;;9.32;4.88;;;17.00;81.80;;;;;;4964501;28;20319;-83
2023/08/14 06:08:59;;;;;;;8.40;4.85;;;16.90;81.90;;;;;;4965311;28;20031;-82
2023/08/14 06:11:25;;;;;;;9.15;4.82;;;16.90;82.20;;;;;;4962947;28;20042;-81
2023/08/14 06:13:51;;;;;;;9.02;4.85;;;16.80;82.50;;;;;;4965812;28;20027;-84
2023/08/14 06:16:16;;;;;;;8.30;4.38;;;16.80;82.80;;;;;;4963423;28;20106;-82
2023/08/14 06:18:42;;;;;;;8.23;4.20;;;16.90;83.00;;;;;;4967529;28;20116;-86
2023/08/14 06:21:08;;;;;;;11.77;5.93;;;17.00;83.20;;;;;;4969837;28;20046;-84
2023/08/14 06:23:34;;;;;;;10.38;4.80;;;17.10;82.80;;;;;;4976663;28;20664;-81
2023/08/14 06:25:59;;;;;;;9.48;4.90;;;17.20;82.70;;;;;;4979079;28;20034;-80
2023/08/14 06:28:25;;;;;;;11.68;4.97;;;17.40;82.70;;;;;;4977018;28;20589;-81
2023/08/14 06:30:51;;;;;;;10.23;5.20;;;17.60;82.40;;;;;;4970863;28;20029;-85
2023/08/14 06:33:16;;;;;;;12.95;5.07;;;17.80;82.20;;;;;;4970391;28;20026;-82
2023/08/14 06:35:42;;;;;;;11.77;5.50;;;18.00;81.70;;;;;;4974330;28;20058;-84
2023/08/14 06:38:08;;;;;;;10.18;5.75;;;18.10;81.20;;;;;;4966216;28;20093;-85
2023/08/14 06:40:33;;;;;;;13.70;6.10;;;18.30;80.60;;;;;;4973179;28;20546;-84
2023/08/14 06:42:59;;;;;;;15.55;7.47;;;18.30;80.20;;;;;;4971277;28;20042;-84
2023/08/14 06:45:25;;;;;;;12.52;6.95;;;18.30;80.30;;;;;;4969914;28;20035;-80
2023/08/14 06:47:51;;;;;;;14.40;7.18;;;18.40;80.80;;;;;;4965096;28;20191;-83
2023/08/14 06:50:16;;;;;;;17.58;8.75;;;18.60;80.50;;;;;;4962516;28;20121;-86
2023/08/14 06:52:42;;;;;;;15.70;8.00;;;18.80;80.20;;;;;;4951231;28;20023;-89
2023/08/14 06:55:08;;;;;;;17.13;8.13;;;19.00;79.60;;;;;;4956440;28;20031;-85
2023/08/14 06:57:34;;;;;;;14.70;8.43;;;19.10;78.90;;;;;;4950697;28;20548;-87
2023/08/14 07:00:06;;;;;;;14.15;7.97;;;19.40;77.90;;;;;;4952984;28;20053;-78
2023/08/14 07:02:31;;;;;;;15.20;7.88;;;19.50;77.10;;;;;;4978308;28;20070;-86
2023/08/14 07:04:57;;;;;;;15.70;7.82;;;19.70;76.00;;;;;;4973672;28;20030;-82
2023/08/14 07:07:23;;;;;;;14.30;7.32;;;19.90;76.00;;;;;;4973152;28;20042;-86
2023/08/14 07:09:48;;;;;;;13.95;7.70;;;20.10;75.20;;;;;;4977276;28;20022;-82
2023/08/14 07:12:14;;;;;;;18.08;7.47;;;20.10;74.60;;;;;;4967869;28;20193;-86
2023/08/14 07:14:40;;;;;;;16.83;7.93;;;20.30;74.20;;;;;;4980468;28;20327;-87
2023/08/14 07:17:05;;;;;;;15.27;7.25;;;20.50;73.80;;;;;;4968861;28;20022;-73
2023/08/14 07:19:31;;;;;;;14.57;7.28;;;20.60;73.10;;;;;;4983208;28;20224;-75
2023/08/14 07:21:57;;;;;;;16.00;7.93;;;20.80;73.30;;;;;;4977494;28;20054;-75
2023/08/14 07:24:24;;;;;;;14.73;6.75;;;21.00;72.30;;;;;;4970988;28;20463;-73
2023/08/14 07:26:49;;;;;;;13.88;6.47;;;21.00;71.50;;;;;;4958409;28;20124;-72
2023/08/14 07:29:15;;;;;;;14.65;6.25;;;21.30;71.50;;;;;;4955988;28;20124;-74
2023/08/14 07:31:41;;;;;;;11.15;5.05;;;21.40;70.80;;;;;;4951963;28;20058;-72
2023/08/14 07:34:06;;;;;;;10.00;4.30;;;21.60;69.70;;;;;;4958498;28;20118;-75
2023/08/14 07:36:32;;;;;;;12.95;5.40;;;21.70;69.20;;;;;;4948068;28;20042;-74
2023/08/14 07:38:58;;;;;;;13.05;5.60;;;21.80;69.70;;;;;;4951904;28;20025;-75
2023/08/14 07:41:24;;;;;;;10.02;4.97;;;22.00;69.30;;;;;;4957462;28;20028;-74
2023/08/14 07:43:49;;;;;;;12.55;4.45;;;22.10;68.80;;;;;;4945103;28;20362;-72
2023/08/14 07:46:17;;;;;;;10.52;3.83;;;22.20;67.00;;;;;;4948095;28;20054;-73
2023/08/14 07:48:42;;;;;;;9.50;3.15;;;22.30;66.10;;;;;;4951778;28;20083;-74
2023/08/14 07:51:08;;;;;;;11.07;4.00;;;22.40;65.30;;;;;;4958587;28;20043;-74
2023/08/14 07:53:34;;;;;;;12.25;3.45;;;22.60;65.60;;;;;;4962057;28;20029;-73
2023/08/14 07:56:00;;;;;;;7.32;2.95;;;22.70;65.20;;;;;;4957445;28;20375;-72
2023/08/14 07:58:26;;;;;;;6.85;2.95;;;22.70;64.40;;;;;;4967157;28;20085;-74
2023/08/14 08:00:52;;;;;;;8.55;3.08;;;22.80;63.50;;;;;;4967196;28;20101;-73
2023/08/14 08:03:18;;;;;;;8.82;3.00;;;23.10;63.90;;;;;;4957589;28;20027;-72
2023/08/14 08:05:44;;;;;;;11.18;3.65;;;23.20;62.90;;;;;;4958251;28;20039;-73
2023/08/14 08:08:10;;;;;;;7.57;2.75;;;23.20;62.40;;;;;;4960053;28;20077;-74
2023/08/14 08:10:36;;;;;;;7.72;2.88;;;23.40;61.70;;;;;;4956481;28;20684;-74
2023/08/14 08:13:02;;;;;;;8.13;2.75;;;23.60;60.60;;;;;;4974333;28;20428;-73
2023/08/14 08:15:30;;;;;;;8.30;2.70;;;23.70;61.10;;;;;;4961602;28;20078;-74
2023/08/14 08:17:55;;;;;;;12.48;3.38;;;23.70;60.90;;;;;;4966308;28;20030;-74
2023/08/14 08:20:21;;;;;;;9.13;2.65;;;23.90;60.80;;;;;;4956559;28;20030;-73
2023/08/14 08:22:47;;;;;;;8.43;2.97;;;24.00;60.10;;;;;;4962008;28;20027;-73
2023/08/14 08:25:13;;;;;;;10.63;2.95;;;24.10;58.80;;;;;;4961093;28;20037;-73
2023/08/14 08:27:38;;;;;;;8.60;3.00;;;24.20;57.70;;;;;;4953326;28;20036;-74
2023/08/14 08:30:04;;;;;;;9.60;3.08;;;24.20;57.30;;;;;;4950201;28;20027;-74
2023/08/14 08:32:30;;;;;;;12.05;3.17;;;24.30;58.50;;;;;;4940636;28;20047;-74
2023/08/14 08:34:56;;;;;;;10.73;3.05;;;24.40;57.90;;;;;;4945861;28;20400;-73
2023/08/14 08:37:22;;;;;;;10.55;3.05;;;24.30;58.50;;;;;;4970344;28;20042;-74
2023/08/14 08:39:48;;;;;;;8.82;2.65;;;24.60;58.70;;;;;;4970550;28;20357;-74
2023/08/14 08:42:14;;;;;;;7.95;2.63;;;24.80;58.00;;;;;;4961592;28;20039;-73
2023/08/14 08:44:44;;;;;;;10.45;3.05;;;25.00;58.00;;;;;;4961565;28;20053;-74
2023/08/14 08:47:15;;;;;;;9.00;2.80;;;25.00;57.10;;;;;;4959818;28;20545;-73
2023/08/14 08:49:41;;;;;;;12.00;2.88;;;25.00;56.80;;;;;;4960126;28;20073;-74
2023/08/14 08:52:07;;;;;;;9.77;2.95;;;25.00;57.30;;;;;;4960272;28;20027;-75
2023/08/14 08:54:33;;;;;;;7.50;2.80;;;25.10;56.40;;;;;;4955638;28;20058;-74
2023/08/14 08:57:00;;;;;;;9.38;2.80;;;25.10;56.80;;;;;;4959822;28;20038;-74
2023/08/14 08:59:26;;;;;;;8.25;2.42;;;25.20;56.00;;;;;;4959187;28;20034;-74
2023/08/14 09:01:53;;;;;;;8.98;2.63;;;25.40;56.00;;;;;;4943430;28;20035;-73
2023/08/14 09:04:19;;;;;;;8.20;2.53;;;25.20;56.20;;;;;;4948500;28;20031;-73
2023/08/14 09:06:45;;;;;;;7.22;2.60;;;25.30;55.70;;;;;;4959196;28;20030;-73
2023/08/14 09:09:12;;;;;;;9.70;2.40;;;25.40;56.40;;;;;;4968427;28;20490;-74
2023/08/14 09:11:38;;;;;;;9.63;2.47;;;25.60;55.30;;;;;;4974419;28;20551;-74
2023/08/14 09:14:05;;;;;;;8.88;2.95;;;25.70;55.60;;;;;;4937206;28;20054;-74
2023/08/14 09:16:31;;;;;;;7.93;2.53;;;25.80;54.90;;;;;;4953369;28;20046;-74
2023/08/14 09:18:58;;;;;;;9.32;2.78;;;25.90;55.40;;;;;;4952191;28;20160;-74
2023/08/14 09:21:25;;;;;;;9.32;2.47;;;26.00;54.50;;;;;;4953958;28;20046;-74
2023/08/14 09:23:51;;;;;;;10.98;3.00;;;26.10;54.70;;;;;;4954098;28;20390;-73
2023/08/14 09:26:18;;;;;;;9.80;2.67;;;26.10;53.20;;;;;;4952977;28;20042;-74
2023/08/14 09:28:44;;;;;;;11.52;3.00;;;26.10;54.00;;;;;;4952119;28;20327;-73
2023/08/14 09:31:12;;;;;;;9.90;2.78;;;26.20;52.70;;;;;;4950035;28;20343;-74
2023/08/14 09:33:43;;;;;;;8.05;2.45;;;26.20;53.50;;;;;;4952675;28;20030;-73
2023/08/14 09:36:12;;;;;;;9.95;2.33;;;26.30;52.90;;;;;;4953347;28;20043;-74
2023/08/14 09:38:39;;;;;;;8.45;2.40;;;26.20;54.50;;;;;;4954911;28;20026;-74
2023/08/14 09:41:05;;;;;;;6.78;2.58;;;26.40;53.60;;;;;;4953266;28;20070;-74
2023/08/14 09:43:32;;;;;;;7.97;2.75;;;26.40;52.10;;;;;;4955046;28;20533;-73
2023/08/14 09:46:00;;;;;;;8.95;2.60;;;26.50;51.20;;;;;;4958149;28;20045;-73
2023/08/14 09:48:46;;;;;;;11.63;3.10;;;26.70;51.50;;;;;;4963739;28;20027;-73
2023/08/14 09:51:16;;;;;;;8.73;2.67;;;26.90;51.00;;;;;;4957383;28;20054;-73
2023/08/14 09:53:49;;;;;;;8.32;2.60;;;27.10;50.00;;;;;;4963738;28;20035;-73
2023/08/14 09:56:16;;;;;;;7.55;2.30;;;27.10;50.10;;;;;;4959423;28;20086;-73
2023/08/14 09:58:42;;;;;;;9.38;2.50;;;27.20;50.20;;;;;;4961056;28;20118;-73
2023/08/14 10:01:14;;;;;;;11.10;2.85;;;27.40;49.80;;;;;;4954217;28;20105;-71
2023/08/14 10:03:41;;;;;;;9.18;2.92;;;27.50;48.50;;;;;;4941290;28;20023;-74
2023/08/14 10:06:10;;;;;;;9.88;2.70;;;27.50;49.30;;;;;;4953137;28;20058;-74
2023/08/14 10:08:38;;;;;;;9.15;2.85;;;27.40;48.90;;;;;;4940607;28;20031;-75
2023/08/14 10:11:04;;;;;;;8.38;2.30;;;27.40;49.70;;;;;;4943002;28;20067;-75
2023/08/14 10:13:32;;;;;;;8.65;2.72;;;27.50;48.80;;;;;;4945784;28;20023;-74
2023/08/14 10:16:02;;;;;;;10.35;2.50;;;27.40;48.00;;;;;;4945452;28;20154;-74
2023/08/14 10:18:29;;;;;;;9.98;2.50;;;27.30;49.00;;;;;;4954535;28;20485;-74
2023/08/14 10:20:59;;;;;;;8.18;2.55;;;27.40;49.90;;;;;;4958421;28;20498;-74
2023/08/14 10:23:25;;;;;;;8.45;2.67;;;27.60;49.20;;;;;;4950521;28;20037;-75
2023/08/14 10:25:52;;;;;;;9.40;2.90;;;27.80;49.40;;;;;;4956660;28;20130;-74
2023/08/14 10:28:21;;;;;;;8.70;2.55;;;27.60;48.70;;;;;;4967134;28;20057;-74
2023/08/14 10:30:47;;;;;;;10.55;2.58;;;27.60;48.50;;;;;;4959983;28;20404;-74
2023/08/14 10:33:14;;;;;;;10.13;2.72;;;27.60;49.30;;;;;;4963219;28;20027;-73
2023/08/14 10:35:54;;;;;;;9.00;2.90;;;27.90;48.30;;;;;;4964152;28;20117;-74
2023/08/14 10:38:20;;;;;;;7.85;2.50;;;27.80;48.40;;;;;;4961821;28;20468;-74
2023/08/14 10:41:04;;;;;;;6.93;2.55;;;28.10;48.80;;;;;;4961001;28;20039;-74
2023/08/14 10:43:31;;;;;;;9.43;2.60;;;28.20;48.20;;;;;;4959406;28;20097;-74
2023/08/14 10:45:57;;;;;;;10.73;2.75;;;28.30;48.40;;;;;;4968833;28;20435;-74
2023/08/14 10:48:24;;;;;;;9.27;2.55;;;28.40;47.40;;;;;;4967469;28;20480;-72
2023/08/14 10:51:00;;;;;;;9.95;3.17;;;28.30;48.00;;;;;;4963003;28;20062;-74
2023/08/14 10:53:26;;;;;;;9.40;2.60;;;28.10;48.40;;;;;;4955742;28;20109;-72
2023/08/14 10:55:52;;;;;;;9.20;2.50;;;28.20;48.60;;;;;;4969337;28;20047;-73
2023/08/14 10:58:33;;;;;;;9.38;2.58;;;28.30;48.10;;;;;;4959557;28;20030;-73
2023/08/14 11:01:00;;;;;;;9.25;2.60;;;28.00;48.70;;;;;;4963949;28;20147;-74
2023/08/14 11:03:26;;;;;;;8.43;2.47;;;28.10;47.90;;;;;;4952329;28;20114;-73
2023/08/14 11:05:52;;;;;;;11.52;2.55;;;28.30;47.80;;;;;;4949369;28;20090;-73
2023/08/14 11:08:18;;;;;;;9.63;2.80;;;28.40;47.40;;;;;;4948615;28;20039;-73
2023/08/14 11:10:44;;;;;;;8.95;2.78;;;28.40;46.80;;;;;;4949259;28;20520;-75
2023/08/14 11:13:10;;;;;;;9.85;2.38;;;28.50;47.90;;;;;;4964610;28;20134;-73
2023/08/14 11:15:39;;;;;;;6.45;2.10;;;28.80;46.80;;;;;;4963326;28;20125;-73
2023/08/14 11:18:06;;;;;;;9.80;2.88;;;28.80;45.80;;;;;;4963609;28;20034;-73
2023/08/14 11:20:32;;;;;;;8.82;2.50;;;28.70;46.40;;;;;;4963752;28;20047;-74
2023/08/14 11:23:01;;;;;;;9.20;2.72;;;28.70;45.50;;;;;;4964895;28;20026;-73
2023/08/14 11:25:27;;;;;;;9.30;3.00;;;28.80;46.40;;;;;;4962484;28;20411;-74
2023/08/14 11:27:54;;;;;;;8.02;2.47;;;28.80;47.00;;;;;;4964714;28;20411;-74
2023/08/14 11:30:23;;;;;;;5.55;2.10;;;28.90;45.90;;;;;;4963249;28;20040;-73
2023/08/14 11:32:53;;;;;;;8.32;2.80;;;28.90;46.80;;;;;;4946328;28;20015;-74
2023/08/14 11:35:19;;;;;;;10.43;2.40;;;28.70;47.90;;;;;;4947067;28;20114;-73
2023/08/14 11:37:46;;;;;;;9.48;2.47;;;28.60;47.50;;;;;;4962910;28;20022;-74
2023/08/14 11:40:15;;;;;;;6.65;2.38;;;29.00;47.60;;;;;;4964342;28;20035;-73
2023/08/14 11:42:42;;;;;;;7.35;2.50;;;29.10;46.60;;;;;;4966688;28;20047;-73
2023/08/14 11:45:08;;;;;;;8.77;2.40;;;29.00;46.80;;;;;;4965861;28;20026;-73
2023/08/14 11:47:36;;;;;;;7.72;2.50;;;29.20;47.00;;;;;;4961942;28;20038;-73
2023/08/14 11:50:04;;;;;;;10.32;2.33;;;29.10;46.30;;;;;;4961398;28;20027;-73
2023/08/14 11:52:30;;;;;;;9.40;2.70;;;29.30;46.10;;;;;;4957730;28;20027;-73
2023/08/14 11:54:57;;;;;;;7.75;2.75;;;29.20;46.30;;;;;;4965135;28;20022;-73
2023/08/14 11:57:24;;;;;;;10.75;2.63;;;29.00;47.60;;;;;;4953602;28;20031;-73
2023/08/14 11:59:51;;;;;;;9.20;2.83;;;29.30;47.00;;;;;;4953168;28;20035;-74
2023/08/14 12:02:18;;;;;;;9.13;2.55;;;29.40;45.60;;;;;;4967992;28;20026;-73
2023/08/14 12:04:44;;;;;;;8.82;2.55;;;29.20;46.80;;;;;;4965826;28;20050;-73
2023/08/14 12:07:10;;;;;;;10.77;2.40;;;29.10;46.40;;;;;;4972685;28;20185;-74
2023/08/14 12:09:37;;;;;;;10.15;2.90;;;28.80;46.80;;;;;;4971458;28;20022;-74
2023/08/14 12:12:04;;;;;;;9.07;2.45;;;29.00;47.10;;;;;;4974607;28;20490;-75
2023/08/14 12:14:44;;;;;;;8.82;2.30;;;28.80;47.70;;;;;;4965289;28;20058;-74
2023/08/14 12:17:11;;;;;;;10.85;2.60;;;28.60;47.20;;;;;;4954643;28;20027;-73
2023/08/14 12:19:40;;;;;;;7.90;2.50;;;28.60;46.00;;;;;;4953969;28;20103;-73
2023/08/14 12:22:06;;;;;;;10.32;2.53;;;28.90;45.20;;;;;;4950412;28;20062;-74
2023/08/14 12:24:43;;;;;;;10.77;2.65;;;28.80;45.40;;;;;;4948450;28;20598;-74
2023/08/14 12:27:15;;;;;;;8.45;2.28;;;29.00;46.60;;;;;;4967029;28;20034;-74
2023/08/14 12:29:41;;;;;;;11.48;2.72;;;29.30;44.20;;;;;;4979174;28;20061;-74
2023/08/14 12:32:07;;;;;;;9.00;2.28;;;29.40;44.20;;;;;;4975017;28;20392;-74
2023/08/14 12:34:32;;;;;;;10.10;2.70;;;29.30;43.90;;;;;;4973682;28;20025;-74
2023/08/14 12:36:58;;;;;;;9.32;2.55;;;29.40;45.10;;;;;;4959122;28;20042;-74
2023/08/14 12:39:24;;;;;;;8.13;2.65;;;29.50;45.20;;;;;;4952027;28;20097;-74
2023/08/14 12:41:55;;;;;;;8.07;2.20;;;29.40;45.70;;;;;;4952444;28;20639;-75